createdAt,value
2019-03-05T00:00:49.585Z,6.70
2019-03-05T00:03:18.393Z,6.70
2019-03-05T00:05:47.202Z,6.60
2019-03-05T00:08:15.623Z,6.50
2019-03-05T00:10:44.147Z,6.50
2019-03-05T00:13:12.939Z,6.50
2019-03-05T00:15:41.918Z,6.60
2019-03-05T00:18:10.706Z,6.60
2019-03-05T00:20:39.124Z,6.60
2019-03-05T00:23:08.456Z,6.60
2019-03-05T00:25:38.903Z,6.60
2019-03-05T00:28:28.600Z,6.60
2019-03-05T00:31:00.550Z,6.70
2019-03-05T00:33:34.582Z,6.70
2019-03-05T00:36:11.690Z,6.70
2019-03-05T00:38:45.708Z,6.80
2019-03-05T00:41:29.240Z,6.70
2019-03-05T00:44:11.548Z,6.70
2019-03-05T00:47:05.984Z,6.60
2019-03-05T00:49:46.185Z,6.70
2019-03-05T00:52:17.678Z,6.80
2019-03-05T00:54:54.772Z,6.80
2019-03-05T00:57:32.170Z,6.80
2019-03-05T01:00:06.586Z,6.80
2019-03-05T01:02:44.178Z,6.80
2019-03-05T01:05:18.701Z,6.80
2019-03-05T01:07:47.125Z,6.80
2019-03-05T01:10:16.510Z,6.70
2019-03-05T01:12:45.013Z,6.70
2019-03-05T01:15:14.705Z,6.70
2019-03-05T01:17:43.162Z,6.70
2019-03-05T01:20:13.317Z,6.70
2019-03-05T01:22:41.767Z,6.60
2019-03-05T01:25:30.875Z,6.60
2019-03-05T01:27:59.297Z,6.60
2019-03-05T01:30:49.201Z,6.60
2019-03-05T01:33:19.187Z,6.50
2019-03-05T01:35:55.382Z,6.60
2019-03-05T01:38:23.813Z,6.60
2019-03-05T01:40:53.904Z,6.60
2019-03-05T01:43:22.312Z,6.60
2019-03-05T01:45:51.102Z,6.70
2019-03-05T01:48:19.873Z,6.70
2019-03-05T01:50:48.304Z,6.70
2019-03-05T01:53:16.768Z,6.70
2019-03-05T01:55:45.216Z,6.80
2019-03-05T01:58:13.997Z,6.70
2019-03-05T02:00:42.498Z,6.70
2019-03-05T02:03:10.980Z,6.80
2019-03-05T02:05:39.405Z,6.80
2019-03-05T02:08:07.850Z,6.80
2019-03-05T02:10:36.260Z,6.70
2019-03-05T02:13:04.717Z,6.70
2019-03-05T02:15:33.462Z,6.70
2019-03-05T02:18:01.901Z,6.70
2019-03-05T02:20:30.418Z,6.70
2019-03-05T02:23:07.868Z,6.70
2019-03-05T02:25:44.889Z,6.70
2019-03-05T02:28:40.302Z,6.70
2019-03-05T02:31:11.849Z,6.70
2019-03-05T02:33:48.856Z,6.60
2019-03-05T02:36:32.141Z,6.60
2019-03-05T02:39:09.861Z,6.60
2019-03-05T02:41:41.414Z,6.60
2019-03-05T02:44:30.955Z,6.60
2019-03-05T02:47:11.183Z,6.50
2019-03-05T02:50:15.726Z,6.50
2019-03-05T02:52:56.034Z,6.50
2019-03-05T02:55:36.221Z,6.60
2019-03-05T02:58:03.590Z,6.50
2019-03-05T03:01:02.218Z,6.60
2019-03-05T03:03:38.286Z,6.60
2019-03-05T03:06:08.354Z,6.60
2019-03-05T03:08:37.274Z,6.60
2019-03-05T03:11:05.789Z,6.60
2019-03-05T03:13:34.305Z,6.40
2019-03-05T03:16:02.742Z,6.00
2019-03-05T03:18:31.192Z,5.90
2019-03-05T03:20:59.615Z,5.80
2019-03-05T03:23:28.352Z,5.70
2019-03-05T03:25:57.172Z,5.70
2019-03-05T03:28:25.603Z,5.70
2019-03-05T03:30:54.038Z,5.70
2019-03-05T03:33:22.587Z,5.70
2019-03-05T03:35:51.070Z,5.70
2019-03-05T03:38:19.519Z,5.70
2019-03-05T03:40:48.222Z,5.70
2019-03-05T03:43:17.060Z,5.70
2019-03-05T03:45:45.499Z,5.70
2019-03-05T03:48:13.941Z,5.70
2019-03-05T03:50:42.421Z,5.90
2019-03-05T03:53:17.034Z,5.90
2019-03-05T03:55:45.451Z,5.90
2019-03-05T03:58:13.923Z,5.90
2019-03-05T04:00:42.358Z,5.90
2019-03-05T04:03:10.790Z,5.90
2019-03-05T04:05:39.285Z,5.90
2019-03-05T04:08:10.371Z,5.90
2019-03-05T04:10:37.884Z,5.90
2019-03-05T04:13:06.350Z,5.90
2019-03-05T04:15:34.781Z,5.90
2019-03-05T04:18:03.525Z,5.80
2019-03-05T04:20:33.235Z,5.80
2019-03-05T04:23:01.647Z,5.80
2019-03-05T04:25:30.406Z,5.90
2019-03-05T04:27:58.870Z,5.90
2019-03-05T04:30:27.341Z,5.90
2019-03-05T04:32:56.127Z,5.90
2019-03-05T04:35:25.052Z,5.90
2019-03-05T04:37:53.461Z,5.90
2019-03-05T04:40:21.908Z,5.90
2019-03-05T04:42:50.666Z,5.90
2019-03-05T04:45:28.670Z,5.90
2019-03-05T04:47:57.094Z,6.00
2019-03-05T04:50:43.162Z,6.00
2019-03-05T04:53:11.930Z,6.00
2019-03-05T04:55:40.729Z,6.00
2019-03-05T04:58:09.153Z,6.00
2019-03-05T05:00:37.681Z,6.10
2019-03-05T05:03:06.106Z,6.10
2019-03-05T05:05:34.559Z,6.20
2019-03-05T05:08:03.310Z,6.20
2019-03-05T05:10:31.747Z,6.30
2019-03-05T05:13:00.173Z,6.40
2019-03-05T05:15:33.569Z,6.40
2019-03-05T05:18:01.988Z,6.40
2019-03-05T05:20:30.502Z,6.40
2019-03-05T05:22:58.947Z,6.50
2019-03-05T05:25:27.398Z,6.50
2019-03-05T05:27:55.840Z,6.50
2019-03-05T05:30:32.724Z,6.30
2019-03-05T05:33:01.159Z,6.10
2019-03-05T05:35:29.690Z,5.90
2019-03-05T05:37:58.495Z,5.70
2019-03-05T05:40:44.366Z,5.70
2019-03-05T05:43:15.532Z,5.70
2019-03-05T05:45:51.954Z,5.70
2019-03-05T05:48:20.549Z,5.60
2019-03-05T05:50:49.074Z,5.60
2019-03-05T05:53:17.829Z,5.50
2019-03-05T05:55:46.266Z,5.50
2019-03-05T05:58:14.993Z,5.50
2019-03-05T06:00:45.413Z,5.50
2019-03-05T06:03:13.830Z,5.60
2019-03-05T06:05:42.699Z,5.60
2019-03-05T06:08:11.130Z,5.60
2019-03-05T06:10:39.582Z,5.70
2019-03-05T06:13:08.009Z,5.80
2019-03-05T06:15:36.588Z,5.90
2019-03-05T06:18:05.030Z,6.00
2019-03-05T06:20:33.473Z,6.10
2019-03-05T06:23:02.261Z,6.10
2019-03-05T06:25:31.053Z,6.10
2019-03-05T06:27:59.831Z,6.10
2019-03-05T06:30:33.929Z,6.10
2019-03-05T06:33:02.430Z,6.00
2019-03-05T06:35:30.934Z,6.00
2019-03-05T06:37:59.682Z,6.00
2019-03-05T06:40:30.269Z,6.00
2019-03-05T06:42:58.720Z,6.00
2019-03-05T06:45:27.482Z,6.00
2019-03-05T06:47:56.266Z,6.00
2019-03-05T06:50:26.547Z,6.00
2019-03-05T06:52:55.369Z,6.00
2019-03-05T06:55:23.867Z,6.00
2019-03-05T06:57:52.378Z,6.00
2019-03-05T07:00:34.033Z,6.00
2019-03-05T07:03:03.912Z,6.10
2019-03-05T07:06:08.756Z,6.20
2019-03-05T07:08:39.562Z,6.30
2019-03-05T07:11:23.138Z,6.40
2019-03-05T07:13:54.180Z,6.50
2019-03-05T07:16:28.467Z,6.60
2019-03-05T07:18:58.550Z,6.70
2019-03-05T07:21:55.598Z,6.70
2019-03-05T07:24:44.465Z,6.70
2019-03-05T07:27:14.646Z,6.80
2019-03-05T07:29:45.131Z,6.90
2019-03-05T07:32:13.836Z,6.90
2019-03-05T07:34:46.862Z,7.00
2019-03-05T07:37:15.302Z,7.10
2019-03-05T07:39:44.083Z,7.20
2019-03-05T07:42:12.893Z,7.20
2019-03-05T07:44:41.338Z,7.40
2019-03-05T07:47:09.803Z,7.40
2019-03-05T07:49:43.876Z,7.50
2019-03-05T07:52:08.740Z,7.60
2019-03-05T07:54:37.194Z,7.70
2019-03-05T07:57:05.644Z,7.80
2019-03-05T07:59:34.388Z,7.80
2019-03-05T08:02:03.599Z,7.90
2019-03-05T08:04:32.024Z,8.00
2019-03-05T08:07:00.858Z,8.10
2019-03-05T08:09:33.935Z,8.20
2019-03-05T08:12:32.578Z,8.30
2019-03-05T08:15:09.782Z,8.30
2019-03-05T08:17:38.188Z,8.30
2019-03-05T08:20:09.677Z,8.30
2019-03-05T08:22:38.402Z,8.50
2019-03-05T08:25:10.014Z,8.50
2019-03-05T08:27:38.426Z,8.50
2019-03-05T08:30:14.301Z,8.70
2019-03-05T08:32:40.122Z,9.00
2019-03-05T08:35:10.280Z,9.10
2019-03-05T08:37:38.712Z,8.90
2019-03-05T08:40:12.884Z,8.80
2019-03-05T08:42:41.321Z,8.80
2019-03-05T08:45:14.791Z,8.80
2019-03-05T08:47:43.306Z,8.90
2019-03-05T08:50:15.775Z,9.00
2019-03-05T08:52:44.234Z,8.90
2019-03-05T08:55:13.301Z,9.00
2019-03-05T08:57:41.736Z,9.20
2019-03-05T09:00:18.313Z,9.30
2019-03-05T09:02:49.047Z,9.20
2019-03-05T09:05:18.865Z,9.20
2019-03-05T09:07:48.233Z,9.20
2019-03-05T09:10:22.658Z,9.20
2019-03-05T09:12:51.118Z,9.20
2019-03-05T09:15:20.345Z,9.30
2019-03-05T09:17:49.209Z,9.20
2019-03-05T09:20:19.779Z,9.40
2019-03-05T09:22:48.210Z,9.70
2019-03-05T09:25:17.792Z,9.80
2019-03-05T09:27:46.508Z,9.80
2019-03-05T09:30:22.488Z,9.80
2019-03-05T09:32:51.254Z,9.70
2019-03-05T09:35:20.254Z,9.60
2019-03-05T09:37:48.668Z,9.50
2019-03-05T09:40:23.441Z,9.60
2019-03-05T09:42:52.558Z,9.60
2019-03-05T09:45:21.606Z,9.50
2019-03-05T09:47:50.027Z,9.40
2019-03-05T09:50:19.323Z,9.50
2019-03-05T09:52:54.855Z,9.40
2019-03-05T09:55:21.392Z,9.00
2019-03-05T09:58:06.962Z,8.80
2019-03-05T10:00:26.982Z,8.70
2019-03-05T10:02:55.468Z,8.80
2019-03-05T10:05:24.322Z,8.80
2019-03-05T10:07:53.123Z,8.70
2019-03-05T10:10:26.981Z,8.80
2019-03-05T10:12:59.304Z,8.90
2019-03-05T10:15:27.654Z,8.80
2019-03-05T10:17:56.253Z,8.30
2019-03-05T10:20:33.316Z,8.00
2019-03-05T10:23:02.546Z,7.80
2019-03-05T10:25:31.059Z,7.80
2019-03-05T10:28:00.531Z,7.70
2019-03-05T10:30:31.298Z,7.50
2019-03-05T10:33:02.678Z,7.40
2019-03-05T10:35:31.125Z,7.40
2019-03-05T10:38:01.208Z,7.30
2019-03-05T10:40:39.501Z,7.40
2019-03-05T10:43:09.673Z,7.40
2019-03-05T10:45:40.532Z,7.40
2019-03-05T10:48:08.964Z,7.50
2019-03-05T10:50:37.389Z,7.60
2019-03-05T10:53:06.082Z,7.70
2019-03-05T10:55:35.004Z,7.70
2019-03-05T10:58:03.447Z,7.60
2019-03-05T11:00:37.557Z,7.70
2019-03-05T11:03:06.025Z,7.60
2019-03-05T11:05:37.143Z,7.50
2019-03-05T11:08:06.084Z,7.50
2019-03-05T11:10:34.549Z,7.40
2019-03-05T11:13:03.106Z,7.40
2019-03-05T11:15:35.991Z,7.50
2019-03-05T11:18:07.328Z,7.50
2019-03-05T11:20:36.336Z,7.60
2019-03-05T11:23:06.171Z,7.60
2019-03-05T11:25:34.610Z,7.70
2019-03-05T11:28:03.023Z,7.80
2019-03-05T11:30:36.320Z,7.80
2019-03-05T11:33:04.798Z,7.70
2019-03-05T11:35:34.587Z,7.50
2019-03-05T11:38:03.337Z,7.40
2019-03-05T11:40:31.894Z,7.30
2019-03-05T11:43:09.383Z,7.10
2019-03-05T11:45:38.676Z,7.10
2019-03-05T11:48:07.637Z,7.00
2019-03-05T11:50:36.074Z,7.00
2019-03-05T11:53:04.984Z,7.00
2019-03-05T11:55:33.419Z,7.00
2019-03-05T11:58:01.866Z,7.10
2019-03-05T12:00:49.523Z,7.10
2019-03-05T12:03:24.349Z,7.10
2019-03-05T12:05:52.810Z,7.20
2019-03-05T12:08:21.235Z,7.20
2019-03-05T12:10:49.982Z,7.20
2019-03-05T12:13:19.143Z,7.20
2019-03-05T12:15:47.858Z,7.10
2019-03-05T12:18:16.318Z,7.10
2019-03-05T12:20:44.857Z,7.20
2019-03-05T12:23:13.345Z,7.20
2019-03-05T12:25:41.795Z,7.10
2019-03-05T12:28:11.177Z,7.00
2019-03-05T12:30:40.468Z,7.00
2019-03-05T12:33:09.204Z,7.10
2019-03-05T12:35:37.774Z,7.10
2019-03-05T12:38:06.262Z,7.10
2019-03-05T12:40:34.717Z,7.20
2019-03-05T12:43:03.601Z,7.20
2019-03-05T12:45:32.037Z,7.20
2019-03-05T12:48:00.493Z,7.20
2019-03-05T12:50:36.210Z,7.10
2019-03-05T12:53:05.544Z,7.10
2019-03-05T12:55:34.043Z,7.10
2019-03-05T12:58:02.773Z,7.00
2019-03-05T13:00:35.570Z,7.00
2019-03-05T13:03:05.259Z,7.00
2019-03-05T13:05:33.678Z,7.00
2019-03-05T13:08:02.526Z,7.00
2019-03-05T13:10:37.432Z,7.10
2019-03-05T13:13:05.677Z,7.10
2019-03-05T13:15:40.856Z,7.10
2019-03-05T13:18:09.667Z,7.10
2019-03-05T13:20:38.092Z,7.00
2019-03-05T13:23:09.319Z,7.00
2019-03-05T13:25:38.291Z,6.90
2019-03-05T13:28:07.243Z,6.80
2019-03-05T13:30:35.672Z,6.70
2019-03-05T13:33:04.170Z,6.70
2019-03-05T13:35:32.963Z,6.60
2019-03-05T13:38:09.749Z,6.60
2019-03-05T13:40:40.307Z,6.60
2019-03-05T13:43:08.621Z,6.60
2019-03-05T13:45:37.372Z,6.60
2019-03-05T13:48:28.502Z,6.60
2019-03-05T13:51:12.071Z,6.60
2019-03-05T13:54:05.608Z,6.60
2019-03-05T13:56:49.533Z,6.60
2019-03-05T13:59:44.864Z,6.60
2019-03-05T14:02:16.503Z,6.60
2019-03-05T14:04:50.642Z,6.70
2019-03-05T14:07:40.841Z,6.70
2019-03-05T14:10:09.404Z,6.70
2019-03-05T14:12:37.927Z,6.70
2019-03-05T14:15:09.569Z,6.70
2019-03-05T14:17:38.858Z,6.60
2019-03-05T14:20:13.448Z,6.60
2019-03-05T14:22:41.915Z,6.50
2019-03-05T14:25:13.180Z,6.50
2019-03-05T14:27:41.989Z,6.50
2019-03-05T14:30:21.030Z,6.50
2019-03-05T14:32:49.289Z,6.50
2019-03-05T14:35:19.268Z,6.50
2019-03-05T14:37:48.306Z,6.50
2019-03-05T14:40:24.551Z,6.50
2019-03-05T14:42:52.729Z,6.50
2019-03-05T14:45:27.079Z,6.50
2019-03-05T14:47:58.066Z,6.50
2019-03-05T14:50:26.865Z,6.50
2019-03-05T14:52:55.350Z,6.50
2019-03-05T14:55:23.993Z,6.50
2019-03-05T14:57:52.415Z,6.50
2019-03-05T15:00:22.098Z,6.50
2019-03-05T15:02:50.804Z,6.50
2019-03-05T15:05:19.647Z,6.50
2019-03-05T15:07:48.133Z,6.50
2019-03-05T15:10:16.696Z,6.40
2019-03-05T15:12:45.194Z,6.40
2019-03-05T15:15:28.050Z,6.40
2019-03-05T15:17:56.619Z,6.30
2019-03-05T15:20:25.215Z,6.30
2019-03-05T15:22:53.800Z,6.20
2019-03-05T15:25:22.596Z,6.20
2019-03-05T15:27:51.956Z,6.20
2019-03-05T15:30:28.747Z,6.10
2019-03-05T15:32:56.585Z,6.20
2019-03-05T15:35:24.988Z,6.20
2019-03-05T15:37:53.382Z,6.20
2019-03-05T15:40:21.910Z,6.20
2019-03-05T15:42:50.551Z,6.20
2019-03-05T15:45:23.213Z,6.20
2019-03-05T15:47:51.893Z,6.10
2019-03-05T15:50:25.642Z,6.20
2019-03-05T15:52:54.501Z,6.20
2019-03-05T15:55:23.375Z,6.20
2019-03-05T15:57:51.774Z,6.20
2019-03-05T16:00:31.417Z,6.20
2019-03-05T16:03:00.958Z,6.20
2019-03-05T16:05:30.053Z,6.20
2019-03-05T16:08:01.713Z,6.30
2019-03-05T16:10:30.164Z,6.30
2019-03-05T16:12:58.570Z,6.30
2019-03-05T16:15:27.986Z,6.30
2019-03-05T16:17:56.413Z,6.40
2019-03-05T16:20:26.090Z,6.40
2019-03-05T16:22:56.720Z,6.40
2019-03-05T16:25:25.392Z,6.40
2019-03-05T16:27:54.147Z,6.40
2019-03-05T16:30:44.946Z,6.40
2019-03-05T16:33:36.961Z,6.40
2019-03-05T16:36:12.938Z,6.40
2019-03-05T16:38:59.647Z,6.40
2019-03-05T16:41:38.574Z,6.50
2019-03-05T16:44:23.843Z,6.50
2019-03-05T16:46:54.206Z,6.50
2019-03-05T16:49:24.602Z,6.60
2019-03-05T16:51:54.676Z,6.60
2019-03-05T16:54:37.032Z,6.60
2019-03-05T16:57:24.130Z,6.60
2019-03-05T17:00:06.054Z,6.60
2019-03-05T17:02:38.206Z,6.50
2019-03-05T17:05:23.514Z,6.50
2019-03-05T17:07:53.641Z,6.50
2019-03-05T17:10:36.318Z,6.50
2019-03-05T17:13:04.742Z,6.50
2019-03-05T17:15:33.188Z,6.50
2019-03-05T17:18:01.635Z,6.50
2019-03-05T17:20:30.035Z,6.50
2019-03-05T17:22:58.437Z,6.50
2019-03-05T17:25:27.017Z,6.50
2019-03-05T17:27:55.444Z,6.50
2019-03-05T17:30:23.850Z,6.50
2019-03-05T17:32:52.736Z,6.50
2019-03-05T17:35:21.263Z,6.50
2019-03-05T17:37:49.685Z,6.50
2019-03-05T17:40:18.452Z,6.50
2019-03-05T17:42:46.837Z,6.40
2019-03-05T17:45:24.144Z,6.50
2019-03-05T17:47:53.173Z,6.40
2019-03-05T17:50:21.582Z,6.40
2019-03-05T17:52:50.377Z,6.40
2019-03-05T17:55:27.062Z,6.40
2019-03-05T17:57:54.731Z,6.40
2019-03-05T18:00:25.249Z,6.40
2019-03-05T18:02:53.628Z,6.40
2019-03-05T18:05:22.031Z,6.40
2019-03-05T18:07:50.457Z,6.30
2019-03-05T18:10:21.231Z,6.30
2019-03-05T18:12:49.630Z,6.30
2019-03-05T18:15:18.113Z,6.30
2019-03-05T18:17:46.510Z,6.30
2019-03-05T18:20:18.307Z,6.30
2019-03-05T18:22:47.198Z,6.30
2019-03-05T18:25:16.729Z,6.30
2019-03-05T18:27:46.081Z,6.30
2019-03-05T18:30:20.218Z,6.30
2019-03-05T18:32:48.987Z,6.40
2019-03-05T18:35:17.779Z,6.40
2019-03-05T18:37:46.283Z,6.40
2019-03-05T18:40:16.885Z,6.40
2019-03-05T18:42:45.689Z,6.40
2019-03-05T18:45:19.782Z,6.40
2019-03-05T18:47:48.185Z,6.40
2019-03-05T18:50:18.984Z,6.40
2019-03-05T18:52:48.939Z,6.40
2019-03-05T18:55:19.740Z,6.40
2019-03-05T18:57:48.430Z,6.40
2019-03-05T19:00:22.097Z,6.40
2019-03-05T19:02:52.226Z,6.40
2019-03-05T19:05:20.693Z,6.40
2019-03-05T19:07:49.119Z,6.40
2019-03-05T19:10:24.544Z,6.30
2019-03-05T19:12:53.025Z,6.30
2019-03-05T19:15:25.985Z,6.30
2019-03-05T19:17:54.561Z,6.30
2019-03-05T19:20:28.196Z,6.30
2019-03-05T19:22:56.977Z,6.30
2019-03-05T19:25:28.468Z,6.30
2019-03-05T19:27:56.916Z,6.30
2019-03-05T19:30:31.624Z,6.20
2019-03-05T19:33:00.324Z,6.20
2019-03-05T19:35:28.770Z,6.20
2019-03-05T19:37:57.282Z,6.20
2019-03-05T19:40:31.398Z,6.20
2019-03-05T19:42:59.835Z,6.20
2019-03-05T19:45:28.336Z,6.20
2019-03-05T19:47:56.784Z,6.20
2019-03-05T19:50:25.202Z,6.20
2019-03-05T19:52:53.694Z,6.20
2019-03-05T19:55:29.185Z,6.10
2019-03-05T19:58:11.096Z,6.10
2019-03-05T20:00:46.302Z,6.10
2019-03-05T20:03:14.770Z,6.10
2019-03-05T20:05:43.281Z,6.10
2019-03-05T20:08:11.865Z,6.10
2019-03-05T20:10:40.310Z,6.10
2019-03-05T20:13:08.770Z,6.10
2019-03-05T20:15:37.194Z,6.10
2019-03-05T20:18:07.389Z,6.10
2019-03-05T20:20:36.172Z,6.10
2019-03-05T20:23:05.345Z,6.00
2019-03-05T20:25:33.859Z,6.00
2019-03-05T20:28:02.300Z,6.00
2019-03-05T20:30:30.909Z,6.10
2019-03-05T20:32:59.395Z,6.10
2019-03-05T20:35:28.176Z,6.10
2019-03-05T20:37:56.950Z,6.10
2019-03-05T20:40:32.496Z,6.10
2019-03-05T20:43:02.796Z,6.10
2019-03-05T20:45:35.998Z,6.10
2019-03-05T20:48:05.383Z,6.00
2019-03-05T20:50:34.284Z,6.10
2019-03-05T20:53:02.734Z,6.10
2019-03-05T20:55:31.174Z,6.10
2019-03-05T20:57:59.765Z,6.10
2019-03-05T21:00:35.595Z,6.10
2019-03-05T21:03:06.842Z,6.10
2019-03-05T21:05:40.863Z,6.20
2019-03-05T21:08:11.707Z,6.20
2019-03-05T21:10:40.202Z,6.20
2019-03-05T21:13:09.177Z,6.10
2019-03-05T21:15:37.950Z,6.20
2019-03-05T21:18:11.992Z,6.20
2019-03-05T21:21:01.798Z,6.20
2019-03-05T21:23:30.261Z,6.20
2019-03-05T21:25:58.736Z,6.20
2019-03-05T21:28:27.672Z,6.20
2019-03-05T21:30:56.470Z,6.20
2019-03-05T21:33:25.299Z,6.20
2019-03-05T21:35:54.049Z,6.20
2019-03-05T21:38:22.518Z,6.10
2019-03-05T21:40:51.350Z,6.10
2019-03-05T21:43:19.794Z,6.10
2019-03-05T21:45:51.810Z,6.00
2019-03-05T21:48:21.238Z,5.90
2019-03-05T21:50:50.034Z,5.90
2019-03-05T21:53:18.507Z,6.00
2019-03-05T21:55:47.369Z,6.00
2019-03-05T21:58:16.186Z,6.00
2019-03-05T22:00:44.655Z,6.00
2019-03-05T22:03:13.214Z,6.00
2019-03-05T22:05:42.031Z,6.00
2019-03-05T22:08:10.473Z,5.90
2019-03-05T22:10:39.307Z,5.80
2019-03-05T22:13:07.753Z,5.70
2019-03-05T22:15:37.607Z,5.80
2019-03-05T22:18:06.117Z,5.80
2019-03-05T22:20:34.549Z,5.80
2019-03-05T22:23:02.991Z,5.70
2019-03-05T22:25:31.442Z,5.70
2019-03-05T22:28:00.209Z,5.70
2019-03-05T22:30:34.108Z,5.60
2019-03-05T22:33:02.531Z,5.60
2019-03-05T22:35:31.478Z,5.50
2019-03-05T22:38:00.379Z,5.40
2019-03-05T22:40:30.273Z,5.40
2019-03-05T22:42:58.710Z,5.40
2019-03-05T22:45:31.890Z,5.40
2019-03-05T22:48:00.308Z,5.40
2019-03-05T22:50:28.762Z,5.30
2019-03-05T22:52:57.601Z,5.30
2019-03-05T22:55:26.128Z,5.20
2019-03-05T22:57:54.972Z,5.20
2019-03-05T23:00:42.757Z,5.20
2019-03-05T23:03:14.962Z,5.20
2019-03-05T23:05:43.761Z,5.20
2019-03-05T23:08:12.186Z,5.20
2019-03-05T23:10:40.721Z,5.20
2019-03-05T23:13:09.422Z,5.30
2019-03-05T23:15:37.960Z,5.30
2019-03-05T23:18:06.764Z,5.20
2019-03-05T23:20:35.189Z,5.20
2019-03-05T23:23:04.029Z,5.10
2019-03-05T23:25:32.501Z,5.10
2019-03-05T23:28:00.950Z,5.10
2019-03-05T23:30:29.526Z,5.10
2019-03-05T23:32:57.978Z,5.10
2019-03-05T23:35:26.733Z,5.10
2019-03-05T23:37:55.185Z,5.00
2019-03-05T23:40:23.619Z,5.00
2019-03-05T23:42:52.084Z,5.00
2019-03-05T23:45:21.095Z,5.00
2019-03-05T23:47:49.599Z,5.00
2019-03-05T23:50:18.732Z,5.00
2019-03-05T23:52:47.208Z,5.00
2019-03-05T23:55:16.333Z,5.00
2019-03-05T23:57:45.043Z,5.00
